Time,TemperatureF,DewpointF,PressureIn,WindDirection,WindDirectionDegrees,WindSpeedMPH,WindSpeedGustMPH,Humidity,HourlyPrecipIn,Conditions,Clouds,dailyrainin,SoftwareType,DateUTC
2013-04-12 00:01:00,34.0,32.0,29.90,North,349,1.0,-999.0,91,-99.99,,,-99.99,,2013-04-12 06:01:00,
2013-04-12 00:11:00,34.0,32.0,29.90,North,349,1.0,-999.0,91,-99.99,,,-99.99,,2013-04-12 06:11:00,
2013-04-12 00:22:00,34.0,32.0,29.90,NNE,17,4.0,-999.0,92,-99.99,,,-99.99,,2013-04-12 06:22:00,
2013-04-12 00:31:00,33.0,31.0,29.91,NNE,25,3.0,-999.0,91,-99.99,,,-99.99,,2013-04-12 06:31:00,
2013-04-12 00:42:00,33.0,31.0,29.91,NNE,25,3.0,-999.0,91,-99.99,,,-99.99,,2013-04-12 06:42:00,
2013-04-12 00:52:00,33.0,31.0,29.91,NW,323,2.0,-999.0,91,-99.99,,,-99.99,,2013-04-12 06:52:00,
2013-04-12 01:01:00,33.0,31.0,29.91,NNW,336,3.0,-999.0,91,-99.99,,,-99.99,,2013-04-12 07:01:00,
2013-04-12 01:11:00,33.0,31.0,29.91,NNW,336,3.0,-999.0,91,-99.99,,,-99.99,,2013-04-12 07:11:00,
2013-04-12 01:22:00,33.0,31.0,29.91,North,360,2.0,-999.0,91,-99.99,,,-99.99,,2013-04-12 07:22:00,
2013-04-12 01:31:00,32.0,30.0,29.91,NNE,19,1.0,-999.0,91,-99.99,,,-99.99,,2013-04-12 07:31:00,
2013-04-12 01:41:00,32.0,30.0,29.91,NNE,19,1.0,-999.0,91,-99.99,,,-99.99,,2013-04-12 07:41:00,
2013-04-12 01:52:00,32.0,30.0,29.91,NNW,341,1.0,-999.0,91,-99.99,,,-99.99,,2013-04-12 07:52:00,
2013-04-12 02:02:00,31.0,29.0,29.91,NNW,331,1.0,-999.0,92,-99.99,,,-99.99,,2013-04-12 08:02:00,
2013-04-12 02:11:00,31.0,29.0,29.91,NNW,331,1.0,-999.0,92,-99.99,,,-99.99,,2013-04-12 08:11:00,
2013-04-12 02:21:00,31.0,29.0,29.91,NNW,331,0.0,-999.0,91,-99.99,,,-99.99,,2013-04-12 08:21:00,
2013-04-12 02:31:00,31.0,29.0,29.91,NNW,331,0.0,-999.0,92,-99.99,,,-99.99,,2013-04-12 08:31:00,
2013-04-12 02:42:00,31.0,29.0,29.91,NNW,331,0.0,-999.0,92,-99.99,,,-99.99,,2013-04-12 08:42:00,
2013-04-12 02:52:00,31.0,29.0,29.90,NNW,331,1.0,-999.0,93,-99.99,,,-99.99,,2013-04-12 08:52:00,
2013-04-12 03:01:00,30.0,28.0,29.89,NNW,331,0.0,-999.0,92,-99.99,,,-99.99,,2013-04-12 09:01:00,
2013-04-12 03:11:00,30.0,28.0,29.89,NNW,331,0.0,-999.0,92,-99.99,,,-99.99,,2013-04-12 09:11:00,
2013-04-12 03:21:00,30.0,28.0,29.89,NNW,331,0.0,-999.0,92,-99.99,,,-99.99,,2013-04-12 09:21:00,
2013-04-12 03:32:00,29.0,27.0,29.90,NNW,333,1.0,-999.0,92,-99.99,,,-99.99,,2013-04-12 09:32:00,
2013-04-12 03:42:00,29.0,27.0,29.90,NNW,333,1.0,-999.0,92,-99.99,,,-99.99,,2013-04-12 09:42:00,
2013-04-12 03:53:00,29.0,27.0,29.90,NNW,333,0.0,-999.0,93,-99.99,,,-99.99,,2013-04-12 09:53:00,
2013-04-12 04:02:00,29.0,27.0,29.90,NNW,333,0.0,-999.0,93,-99.99,,,-99.99,,2013-04-12 10:02:00,
2013-04-12 04:12:00,29.0,27.0,29.91,NNW,333,0.0,-999.0,93,-99.99,,,-99.99,,2013-04-12 10:12:00,
2013-04-12 04:22:00,29.0,27.0,29.91,NNW,333,0.0,-999.0,93,-99.99,,,-99.99,,2013-04-12 10:22:00,
2013-04-12 04:33:00,29.0,27.0,29.92,North,355,1.0,-999.0,93,-99.99,,,-99.99,,2013-04-12 10:33:00,
2013-04-12 04:42:00,29.0,27.0,29.92,North,355,1.0,-999.0,93,-99.99,,,-99.99,,2013-04-12 10:42:00,
2013-04-12 04:52:00,29.0,27.0,29.93,North,355,0.0,-999.0,93,-99.99,,,-99.99,,2013-04-12 10:52:00,
2013-04-12 05:02:00,29.0,27.0,29.90,North,355,0.0,-999.0,94,-99.99,,,-99.99,,2013-04-12 11:02:00,
2013-04-12 05:11:00,29.0,27.0,29.90,North,355,0.0,-999.0,94,-99.99,,,-99.99,,2013-04-12 11:11:00,
2013-04-12 05:22:00,30.0,28.0,29.90,NNW,334,2.0,-999.0,94,-99.99,,,-99.99,,2013-04-12 11:22:00,
2013-04-12 05:32:00,31.0,28.0,29.90,NNE,13,1.0,-999.0,90,-99.99,,,-99.99,,2013-04-12 11:32:00,
2013-04-12 05:42:00,31.0,28.0,29.90,NNE,13,1.0,-999.0,90,-99.99,,,-99.99,,2013-04-12 11:42:00,
2013-04-12 05:52:00,30.0,27.0,29.90,NNE,13,0.0,-999.0,90,-99.99,,,-99.99,,2013-04-12 11:52:00,
2013-04-12 06:01:00,29.0,27.0,29.91,NNE,13,1.0,-999.0,91,-99.99,,,-99.99,,2013-04-12 12:01:00,
2013-04-12 06:12:00,29.0,27.0,29.91,NNE,13,1.0,-999.0,91,-99.99,,,-99.99,,2013-04-12 12:12:00,
2013-04-12 06:22:00,29.0,27.0,29.91,NNE,13,1.0,-999.0,91,-99.99,,,-99.99,,2013-04-12 12:22:00,
2013-04-12 06:32:00,29.0,27.0,29.91,NNE,19,2.0,-999.0,91,-99.99,,,-99.99,,2013-04-12 12:32:00,
2013-04-12 06:42:00,29.0,27.0,29.91,NNE,19,2.0,-999.0,91,-99.99,,,-99.99,,2013-04-12 12:42:00,
2013-04-12 06:53:00,29.0,26.0,29.92,North,10,2.0,-999.0,90,-99.99,,,-99.99,,2013-04-12 12:53:00,
2013-04-12 07:02:00,29.0,25.0,29.93,NNW,345,2.0,-999.0,86,-99.99,,,-99.99,,2013-04-12 13:02:00,
2013-04-12 07:11:00,29.0,25.0,29.93,NNW,345,2.0,-999.0,86,-99.99,,,-99.99,,2013-04-12 13:11:00,
2013-04-12 07:21:00,28.0,25.0,29.93,NNW,342,2.0,-999.0,87,-99.99,,,-99.99,,2013-04-12 13:21:00,
2013-04-12 07:32:00,28.0,24.0,29.94,North,355,2.0,-999.0,85,-99.99,,,-99.99,,2013-04-12 13:32:00,
2013-04-12 07:42:00,28.0,24.0,29.94,North,355,2.0,-999.0,85,-99.99,,,-99.99,,2013-04-12 13:42:00,
2013-04-12 07:53:00,30.0,25.0,29.95,NNW,335,4.0,-999.0,81,-99.99,,,-99.99,,2013-04-12 13:53:00,
2013-04-12 08:02:00,30.0,25.0,29.96,NNW,336,2.0,-999.0,80,-99.99,,,-99.99,,2013-04-12 14:02:00,
2013-04-12 08:12:00,30.0,25.0,29.96,NNW,336,2.0,-999.0,80,-99.99,,,-99.99,,2013-04-12 14:12:00,
2013-04-12 08:22:00,30.0,23.0,29.96,NNW,335,5.0,-999.0,75,-99.99,,,-99.99,,2013-04-12 14:22:00,
2013-04-12 08:32:00,30.0,22.0,29.98,NNW,340,6.0,-999.0,73,-99.99,,,-99.99,,2013-04-12 14:32:00,
2013-04-12 08:41:00,30.0,22.0,29.98,NNW,340,6.0,-999.0,73,-99.99,,,-99.99,,2013-04-12 14:41:00,
2013-04-12 08:53:00,31.0,22.0,29.98,NNW,340,5.0,-999.0,68,-99.99,,,-99.99,,2013-04-12 14:53:00,
2013-04-12 09:02:00,32.0,22.0,29.99,North,355,4.0,-999.0,66,-99.99,,,-99.99,,2013-04-12 15:02:00,
2013-04-12 09:11:00,32.0,22.0,29.99,North,355,4.0,-999.0,66,-99.99,,,-99.99,,2013-04-12 15:11:00,
2013-04-12 09:22:00,33.0,23.0,29.98,North,5,7.0,-999.0,65,-99.99,,,-99.99,,2013-04-12 15:22:00,
2013-04-12 09:32:00,32.0,22.0,29.99,NNW,338,7.0,-999.0,65,-99.99,,,-99.99,,2013-04-12 15:32:00,
2013-04-12 09:42:00,32.0,22.0,29.99,NNW,338,7.0,-999.0,65,-99.99,,,-99.99,,2013-04-12 15:42:00,
2013-04-12 09:53:00,33.0,22.0,29.99,NNE,25,7.0,-999.0,64,-99.99,,,-99.99,,2013-04-12 15:53:00,
2013-04-12 10:03:00,34.0,23.0,29.99,NNW,346,6.0,-999.0,63,-99.99,,,-99.99,,2013-04-12 16:03:00,
2013-04-12 10:12:00,34.0,23.0,29.99,NNW,346,6.0,-999.0,63,-99.99,,,-99.99,,2013-04-12 16:12:00,
2013-04-12 10:22:00,34.0,22.0,29.99,NNW,346,6.0,-999.0,61,-99.99,,,-99.99,,2013-04-12 16:22:00,
2013-04-12 10:32:00,35.0,23.0,30.00,NNE,17,7.0,-999.0,62,-99.99,,,-99.99,,2013-04-12 16:32:00,
2013-04-12 10:42:00,35.0,23.0,30.00,NNE,17,7.0,-999.0,62,-99.99,,,-99.99,,2013-04-12 16:42:00,
2013-04-12 10:53:00,35.0,22.0,29.99,NW,323,5.0,-999.0,59,-99.99,,,-99.99,,2013-04-12 16:53:00,
2013-04-12 11:02:00,36.0,21.0,29.99,North,360,6.0,-999.0,53,-99.99,,,-99.99,,2013-04-12 17:02:00,
2013-04-12 11:12:00,36.0,21.0,29.99,North,360,6.0,-999.0,53,-99.99,,,-99.99,,2013-04-12 17:12:00,
2013-04-12 11:22:00,37.0,20.0,29.99,NNW,342,6.0,-999.0,50,-99.99,,,-99.99,,2013-04-12 17:22:00,
2013-04-12 11:32:00,38.0,20.0,29.99,NW,325,5.0,-999.0,48,-99.99,,,-99.99,,2013-04-12 17:32:00,
2013-04-12 11:43:00,38.0,20.0,29.99,NW,325,5.0,-999.0,48,-99.99,,,-99.99,,2013-04-12 17:43:00,
2013-04-12 12:13:00,38.0,21.0,29.99,NNE,17,5.0,-999.0,50,-99.99,,,-99.99,,2013-04-12 18:13:00,
2013-04-12 12:24:00,38.0,19.0,29.98,NNW,329,4.0,-999.0,46,-99.99,,,-99.99,,2013-04-12 18:24:00,
2013-04-12 13:32:00,44.0,17.0,29.95,South,185,2.0,-999.0,33,-99.99,,,-99.99,,2013-04-12 19:32:00,
2013-04-12 13:42:00,44.0,17.0,29.95,South,185,2.0,-999.0,33,-99.99,,,-99.99,,2013-04-12 19:42:00,
2013-04-12 13:52:00,45.0,17.0,29.94,ENE,71,2.0,-999.0,32,-99.99,,,-99.99,,2013-04-12 19:52:00,
2013-04-12 14:01:00,48.0,16.0,29.94,SW,217,5.0,-999.0,28,-99.99,,,-99.99,,2013-04-12 20:01:00,
2013-04-12 14:11:00,48.0,16.0,29.94,SW,217,5.0,-999.0,28,-99.99,,,-99.99,,2013-04-12 20:11:00,
2013-04-12 14:21:00,48.0,16.0,29.93,WNW,302,5.0,-999.0,27,-99.99,,,-99.99,,2013-04-12 20:21:00,
2013-04-12 14:32:00,48.0,16.0,29.93,WNW,288,8.0,-999.0,27,-99.99,,,-99.99,,2013-04-12 20:32:00,
2013-04-12 14:42:00,48.0,16.0,29.93,WNW,288,8.0,-999.0,27,-99.99,,,-99.99,,2013-04-12 20:42:00,
2013-04-12 14:52:00,49.0,16.0,29.93,SSW,207,8.0,-999.0,27,-99.99,,,-99.99,,2013-04-12 20:52:00,
2013-04-12 15:01:00,50.0,17.0,29.92,South,186,7.0,-999.0,27,-99.99,,,-99.99,,2013-04-12 21:01:00,
2013-04-12 15:11:00,50.0,17.0,29.92,South,186,7.0,-999.0,27,-99.99,,,-99.99,,2013-04-12 21:11:00,
2013-04-12 15:21:00,50.0,18.0,29.93,WSW,248,8.0,-999.0,28,-99.99,,,-99.99,,2013-04-12 21:21:00,
2013-04-12 15:32:00,50.0,16.0,29.92,SW,218,9.0,-999.0,25,-99.99,,,-99.99,,2013-04-12 21:32:00,
2013-04-12 15:42:00,50.0,16.0,29.92,SW,218,9.0,-999.0,25,-99.99,,,-99.99,,2013-04-12 21:42:00,
2013-04-12 15:52:00,50.0,11.0,29.92,WSW,244,9.0,-999.0,20,-99.99,,,-99.99,,2013-04-12 21:52:00,
2013-04-12 16:02:00,51.0,12.0,29.90,West,262,7.0,-999.0,21,-99.99,,,-99.99,,2013-04-12 22:02:00,
2013-04-12 16:12:00,51.0,12.0,29.90,West,262,7.0,-999.0,21,-99.99,,,-99.99,,2013-04-12 22:12:00,
2013-04-12 16:22:00,51.0,9.0,29.90,SW,227,8.0,-999.0,18,-99.99,,,-99.99,,2013-04-12 22:22:00,
2013-04-12 16:32:00,49.0,9.0,29.89,SSW,213,8.0,-999.0,19,-99.99,,,-99.99,,2013-04-12 22:32:00,
2013-04-12 16:42:00,49.0,9.0,29.89,SSW,213,8.0,-999.0,19,-99.99,,,-99.99,,2013-04-12 22:42:00,
2013-04-12 16:52:00,50.0,7.0,29.88,West,271,8.0,-999.0,17,-99.99,,,-99.99,,2013-04-12 22:52:00,
2013-04-12 17:03:00,50.0,8.0,29.88,SSW,202,7.0,-999.0,18,-99.99,,,-99.99,,2013-04-12 23:03:00,
2013-04-12 17:12:00,50.0,8.0,29.88,SSW,202,7.0,-999.0,18,-99.99,,,-99.99,,2013-04-12 23:12:00,
2013-04-12 17:22:00,50.0,9.0,29.87,WSW,255,7.0,-999.0,19,-99.99,,,-99.99,,2013-04-12 23:22:00,
2013-04-12 17:31:00,51.0,12.0,29.87,West,259,5.0,-999.0,21,-99.99,,,-99.99,,2013-04-12 23:31:00,
2013-04-12 17:42:00,51.0,12.0,29.87,West,259,5.0,-999.0,21,-99.99,,,-99.99,,2013-04-12 23:42:00,
2013-04-12 17:52:00,50.0,12.0,29.87,SSW,198,9.0,-999.0,21,-99.99,,,-99.99,,2013-04-12 23:52:00,
2013-04-12 18:01:00,49.0,13.0,29.86,SW,223,7.0,-999.0,23,-99.99,,,-99.99,,2013-04-13 00:01:00,
2013-04-12 18:11:00,49.0,13.0,29.86,SW,223,7.0,-999.0,23,-99.99,,,-99.99,,2013-04-13 00:11:00,
2013-04-12 18:21:00,50.0,15.0,29.86,SW,225,7.0,-999.0,24,-99.99,,,-99.99,,2013-04-13 00:21:00,
2013-04-12 18:32:00,50.0,16.0,29.85,SSW,213,9.0,-999.0,26,-99.99,,,-99.99,,2013-04-13 00:32:00,
2013-04-12 18:41:00,50.0,16.0,29.85,SSW,213,9.0,-999.0,26,-99.99,,,-99.99,,2013-04-13 00:41:00,
2013-04-12 18:52:00,49.0,16.0,29.86,WSW,241,7.0,-999.0,27,-99.99,,,-99.99,,2013-04-13 00:52:00,
2013-04-12 19:01:00,47.0,16.0,29.85,WSW,250,3.0,-999.0,29,-99.99,,,-99.99,,2013-04-13 01:01:00,
2013-04-12 19:12:00,47.0,16.0,29.85,WSW,250,3.0,-999.0,29,-99.99,,,-99.99,,2013-04-13 01:12:00,
2013-04-12 19:21:00,46.0,19.0,29.85,SSW,195,1.0,-999.0,33,-99.99,,,-99.99,,2013-04-13 01:21:00,
2013-04-12 19:31:00,45.0,18.0,29.85,SW,223,3.0,-999.0,34,-99.99,,,-99.99,,2013-04-13 01:31:00,
2013-04-12 19:42:00,45.0,18.0,29.85,SW,223,3.0,-999.0,34,-99.99,,,-99.99,,2013-04-13 01:42:00,
2013-04-12 19:52:00,44.0,17.0,29.84,SW,229,5.0,-999.0,34,-99.99,,,-99.99,,2013-04-13 01:52:00,
2013-04-12 20:01:00,43.0,17.0,29.84,SW,221,5.0,-999.0,35,-99.99,,,-99.99,,2013-04-13 02:01:00,
2013-04-12 20:11:00,43.0,17.0,29.84,SW,221,5.0,-999.0,35,-99.99,,,-99.99,,2013-04-13 02:11:00,
2013-04-12 20:22:00,43.0,18.0,29.83,SSW,207,5.0,-999.0,36,-99.99,,,-99.99,,2013-04-13 02:22:00,
2013-04-12 20:32:00,42.0,19.0,29.83,SW,226,1.0,-999.0,39,-99.99,,,-99.99,,2013-04-13 02:32:00,
2013-04-12 20:42:00,42.0,19.0,29.83,SW,226,1.0,-999.0,39,-99.99,,,-99.99,,2013-04-13 02:42:00,
2013-04-12 20:53:00,40.0,19.0,29.83,SW,226,1.0,-999.0,42,-99.99,,,-99.99,,2013-04-13 02:53:00,
2013-04-12 21:01:00,40.0,19.0,29.83,South,172,2.0,-999.0,43,-99.99,,,-99.99,,2013-04-13 03:01:00,
2013-04-12 21:11:00,40.0,19.0,29.83,South,172,2.0,-999.0,43,-99.99,,,-99.99,,2013-04-13 03:11:00,
2013-04-12 21:22:00,41.0,20.0,29.83,South,187,5.0,-999.0,43,-99.99,,,-99.99,,2013-04-13 03:22:00,
2013-04-12 21:32:00,42.0,19.0,29.83,South,175,7.0,-999.0,39,-99.99,,,-99.99,,2013-04-13 03:32:00,
2013-04-12 21:42:00,42.0,19.0,29.83,South,175,7.0,-999.0,39,-99.99,,,-99.99,,2013-04-13 03:42:00,
2013-04-12 21:53:00,40.0,19.0,29.83,SSE,160,4.0,-999.0,43,-99.99,,,-99.99,,2013-04-13 03:53:00,
2013-04-12 22:02:00,39.0,20.0,29.83,SSE,155,4.0,-999.0,46,-99.99,,,-99.99,,2013-04-13 04:02:00,
2013-04-12 22:12:00,39.0,20.0,29.83,SSE,155,4.0,-999.0,46,-99.99,,,-99.99,,2013-04-13 04:12:00,
2013-04-12 22:22:00,38.0,21.0,29.82,SE,124,5.0,-999.0,49,-99.99,,,-99.99,,2013-04-13 04:22:00,
2013-04-12 22:32:00,37.0,20.0,29.81,SE,142,4.0,-999.0,49,-99.99,,,-99.99,,2013-04-13 04:32:00,
2013-04-12 22:42:00,37.0,20.0,29.81,SE,142,4.0,-999.0,49,-99.99,,,-99.99,,2013-04-13 04:42:00,
2013-04-12 22:53:00,37.0,21.0,29.81,SSE,152,1.0,-999.0,51,-99.99,,,-99.99,,2013-04-13 04:53:00,
2013-04-12 23:02:00,36.0,21.0,29.81,SW,215,0.0,-999.0,54,-99.99,,,-99.99,,2013-04-13 05:02:00,
2013-04-12 23:11:00,36.0,21.0,29.81,SW,215,0.0,-999.0,54,-99.99,,,-99.99,,2013-04-13 05:11:00,
2013-04-12 23:22:00,35.0,20.0,29.80,SW,215,0.0,-999.0,55,-99.99,,,-99.99,,2013-04-13 05:22:00,
2013-04-12 23:31:00,35.0,23.0,29.80,South,178,2.0,-999.0,60,-99.99,,,-99.99,,2013-04-13 05:31:00,
2013-04-12 23:42:00,35.0,23.0,29.80,South,178,2.0,-999.0,60,-99.99,,,-99.99,,2013-04-13 05:42:00,
2013-04-12 23:52:00,38.0,23.0,29.79,South,174,7.0,-999.0,55,-99.99,,,-99.99,,2013-04-13 05:52:00,